createdAt,value
2023-03-06T00:01:09.147Z,46.02
2023-03-06T00:03:36.796Z,45.98
2023-03-06T00:06:04.533Z,45.77
2023-03-06T00:08:32.077Z,46.26
2023-03-06T00:11:00.249Z,45.82
2023-03-06T00:13:30.178Z,45.57
2023-03-06T00:16:00.991Z,46.38
2023-03-06T00:18:28.690Z,45.99
2023-03-06T00:20:56.262Z,45.69
2023-03-06T00:23:23.797Z,45.46
2023-03-06T00:25:51.383Z,45.57
2023-03-06T00:28:18.881Z,46.25
2023-03-06T00:30:47.397Z,45.69
2023-03-06T00:33:14.955Z,46.20
2023-03-06T00:35:42.593Z,45.54
2023-03-06T00:38:14.494Z,46.21
2023-03-06T00:40:42.035Z,45.96
2023-03-06T00:43:10.093Z,45.44
2023-03-06T00:45:37.893Z,45.65
2023-03-06T00:48:05.807Z,45.99
2023-03-06T00:50:35.141Z,46.07
2023-03-06T00:53:02.731Z,45.44
2023-03-06T00:55:31.082Z,45.97
2023-03-06T00:57:58.683Z,45.43
2023-03-06T01:00:28.427Z,45.83
2023-03-06T01:02:56.056Z,45.99
2023-03-06T01:05:24.730Z,45.84
2023-03-06T01:07:52.278Z,45.80
2023-03-06T01:10:20.237Z,45.48
2023-03-06T01:12:48.708Z,45.26
2023-03-06T01:15:16.229Z,45.55
2023-03-06T01:17:45.092Z,45.26
2023-03-06T01:20:18.923Z,45.31
2023-03-06T01:22:46.491Z,45.48
2023-03-06T01:25:14.021Z,45.19
2023-03-06T01:27:41.634Z,45.14
2023-03-06T01:30:12.494Z,45.42
2023-03-06T01:32:40.193Z,45.42
2023-03-06T01:35:08.858Z,45.02
2023-03-06T01:37:37.392Z,45.15
2023-03-06T01:40:06.565Z,44.98
2023-03-06T01:42:34.120Z,45.00
2023-03-06T01:45:12.959Z,44.78
2023-03-06T01:47:40.467Z,44.58
2023-03-06T01:50:12.573Z,45.45
2023-03-06T01:52:52.530Z,45.35
2023-03-06T01:55:26.128Z,44.96
2023-03-06T01:57:59.768Z,44.82
2023-03-06T02:00:29.056Z,44.90
2023-03-06T02:03:10.320Z,45.59
2023-03-06T02:05:41.228Z,45.65
2023-03-06T02:08:13.843Z,45.65
2023-03-06T02:10:50.095Z,45.11
2023-03-06T02:13:17.669Z,45.06
2023-03-06T02:15:45.276Z,44.77
2023-03-06T02:18:13.921Z,45.41
2023-03-06T02:20:52.469Z,45.29
2023-03-06T02:23:59.571Z,44.97
2023-03-06T02:26:28.660Z,45.35
2023-03-06T02:28:58.416Z,45.66
2023-03-06T02:31:31.772Z,45.33
2023-03-06T02:34:16.649Z,45.44
2023-03-06T02:37:08.813Z,44.84
2023-03-06T02:39:42.943Z,45.27
2023-03-06T02:42:17.426Z,45.27
2023-03-06T02:44:45.234Z,44.52
2023-03-06T02:47:12.945Z,44.75
2023-03-06T02:49:40.432Z,45.01
2023-03-06T02:52:08.131Z,44.53
2023-03-06T02:54:35.672Z,44.67
2023-03-06T02:57:03.259Z,44.28
2023-03-06T02:59:32.473Z,45.06
2023-03-06T03:02:00.072Z,44.57
2023-03-06T03:04:27.649Z,44.98
2023-03-06T03:06:55.528Z,45.00
2023-03-06T03:09:23.500Z,44.68
2023-03-06T03:11:50.979Z,44.46
2023-03-06T03:14:18.732Z,44.32
2023-03-06T03:16:47.949Z,44.66
2023-03-06T03:19:15.416Z,45.16
2023-03-06T03:21:43.506Z,44.68
2023-03-06T03:24:11.051Z,44.66
2023-03-06T03:26:38.670Z,44.80
2023-03-06T03:29:12.241Z,44.89
2023-03-06T03:31:39.748Z,44.34
2023-03-06T03:34:08.280Z,44.17
2023-03-06T03:36:39.078Z,44.13
2023-03-06T03:39:08.896Z,44.98
2023-03-06T03:41:36.728Z,45.03
2023-03-06T03:44:07.897Z,44.33
2023-03-06T03:46:36.218Z,44.09
2023-03-06T03:49:05.666Z,44.29
2023-03-06T03:51:33.390Z,44.55
2023-03-06T03:54:01.267Z,44.58
2023-03-06T03:56:34.760Z,44.32
2023-03-06T03:59:09.185Z,44.19
2023-03-06T04:01:45.855Z,44.60
2023-03-06T04:04:13.823Z,44.48
2023-03-06T04:06:42.986Z,44.80
2023-03-06T04:09:10.926Z,44.48
2023-03-06T04:11:38.995Z,44.85
2023-03-06T04:14:08.231Z,44.40
2023-03-06T04:16:36.146Z,44.51
2023-03-06T04:19:03.749Z,44.88
2023-03-06T04:21:32.068Z,44.19
2023-03-06T04:24:00.172Z,44.88
2023-03-06T04:26:27.674Z,44.01
2023-03-06T04:28:56.110Z,44.47
2023-03-06T04:31:23.804Z,44.80
2023-03-06T04:33:51.325Z,44.76
2023-03-06T04:36:35.462Z,44.41
2023-03-06T04:39:07.728Z,44.40
2023-03-06T04:41:35.891Z,44.43
2023-03-06T04:44:03.596Z,44.39
2023-03-06T04:46:31.122Z,44.98
2023-03-06T04:48:58.625Z,44.17
2023-03-06T04:51:26.439Z,44.98
2023-03-06T04:53:53.908Z,44.86
2023-03-06T04:56:21.471Z,44.85
2023-03-06T04:58:49.200Z,44.62
2023-03-06T05:01:16.684Z,44.76
2023-03-06T05:03:44.184Z,44.31
2023-03-06T05:06:11.688Z,44.47
2023-03-06T05:08:39.218Z,44.16
2023-03-06T05:11:06.955Z,44.12
2023-03-06T05:13:34.453Z,44.65
2023-03-06T05:16:06.970Z,44.48
2023-03-06T05:18:35.786Z,44.86
2023-03-06T05:21:04.996Z,44.22
2023-03-06T05:23:36.285Z,44.48
2023-03-06T05:26:09.199Z,44.15
2023-03-06T05:28:36.797Z,44.54
2023-03-06T05:31:05.389Z,44.73
2023-03-06T05:33:34.692Z,44.32
2023-03-06T05:36:02.552Z,44.21
2023-03-06T05:38:30.132Z,44.64
2023-03-06T05:40:57.642Z,44.79
2023-03-06T05:43:25.146Z,43.93
2023-03-06T05:46:04.618Z,44.18
2023-03-06T05:48:33.141Z,44.13
2023-03-06T05:51:02.377Z,44.82
2023-03-06T05:53:30.902Z,44.23
2023-03-06T05:56:08.811Z,44.99
2023-03-06T05:58:36.743Z,44.96
2023-03-06T06:01:17.607Z,44.23
2023-03-06T06:03:46.352Z,44.96
2023-03-06T06:06:15.356Z,44.91
2023-03-06T06:08:43.054Z,44.82
2023-03-06T06:11:12.981Z,45.13
2023-03-06T06:13:41.754Z,44.46
2023-03-06T06:16:16.373Z,44.98
2023-03-06T06:18:44.004Z,44.45
2023-03-06T06:21:14.348Z,44.30
2023-03-06T06:23:42.488Z,44.79
2023-03-06T06:26:10.917Z,44.63
2023-03-06T06:28:38.469Z,45.01
2023-03-06T06:31:13.055Z,44.47
2023-03-06T06:33:41.525Z,44.74
2023-03-06T06:36:18.015Z,44.34
2023-03-06T06:38:45.529Z,44.41
2023-03-06T06:41:38.904Z,45.01
2023-03-06T06:44:01.399Z,44.75
2023-03-06T06:49:17.380Z,44.26
2023-03-06T06:51:45.728Z,45.14
2023-03-06T06:54:13.327Z,44.24
2023-03-06T06:56:40.830Z,45.29
2023-03-06T06:59:16.685Z,44.35
2023-03-06T07:01:45.133Z,44.50
2023-03-06T07:04:14.128Z,44.66
2023-03-06T07:06:42.719Z,45.18
2023-03-06T07:09:10.432Z,44.83
2023-03-06T07:11:39.581Z,44.46
2023-03-06T07:14:07.072Z,44.91
2023-03-06T07:16:34.886Z,44.65
2023-03-06T07:19:02.736Z,44.38
2023-03-06T07:21:30.309Z,44.50
2023-03-06T07:23:58.071Z,44.46
2023-03-06T07:26:27.365Z,44.89
2023-03-06T07:28:55.355Z,44.81
2023-03-06T07:31:26.931Z,44.30
2023-03-06T07:33:55.557Z,44.50
2023-03-06T07:36:23.943Z,44.78
2023-03-06T07:38:51.493Z,44.45
2023-03-06T07:41:21.960Z,44.74
2023-03-06T07:43:50.525Z,44.23
2023-03-06T07:46:19.274Z,44.26
2023-03-06T07:48:46.813Z,45.03
2023-03-06T07:51:18.029Z,45.03
2023-03-06T07:53:45.907Z,44.66
2023-03-06T07:56:13.941Z,45.22
2023-03-06T07:58:45.021Z,45.50
2023-03-06T08:01:16.832Z,45.34
2023-03-06T08:03:44.415Z,45.39
2023-03-06T08:06:16.728Z,45.43
2023-03-06T08:08:47.137Z,46.24
2023-03-06T08:11:17.782Z,45.57
2023-03-06T08:13:45.471Z,46.32
2023-03-06T08:16:12.990Z,46.51
2023-03-06T08:18:40.551Z,46.49
2023-03-06T08:21:14.750Z,46.36
2023-03-06T08:23:42.877Z,46.96
2023-03-06T08:26:23.409Z,46.20
2023-03-06T08:28:52.883Z,46.72
2023-03-06T08:31:43.172Z,46.70
2023-03-06T08:34:17.666Z,46.83
2023-03-06T08:36:45.412Z,47.02
2023-03-06T08:39:14.059Z,47.26
2023-03-06T08:41:42.293Z,47.56
2023-03-06T08:44:12.119Z,47.51
2023-03-06T08:46:39.942Z,46.94
2023-03-06T08:49:07.566Z,47.38
2023-03-06T08:51:35.722Z,47.18
2023-03-06T08:54:03.559Z,47.49
2023-03-06T08:56:34.050Z,46.73
2023-03-06T08:59:04.403Z,47.10
2023-03-06T09:01:36.522Z,46.92
2023-03-06T09:04:08.495Z,46.71
2023-03-06T09:06:41.058Z,47.22
2023-03-06T09:09:09.806Z,46.90
2023-03-06T09:11:38.055Z,47.43
2023-03-06T09:14:06.178Z,46.99
2023-03-06T09:16:33.746Z,47.25
2023-03-06T09:19:01.344Z,47.73
2023-03-06T09:21:28.857Z,47.42
2023-03-06T09:24:22.170Z,47.67
2023-03-06T09:26:51.621Z,48.16
2023-03-06T09:29:19.294Z,47.38
2023-03-06T09:31:46.822Z,47.83
2023-03-06T09:34:14.634Z,48.26
2023-03-06T09:36:55.336Z,48.14
2023-03-06T09:39:26.376Z,47.90
2023-03-06T09:41:55.157Z,48.61
2023-03-06T09:44:30.944Z,47.76
2023-03-06T09:47:29.566Z,48.01
2023-03-06T09:50:30.680Z,47.92
2023-03-06T09:53:32.698Z,49.37
2023-03-06T09:56:13.329Z,48.07
2023-03-06T09:59:13.200Z,47.88
2023-03-06T10:01:44.922Z,48.38
2023-03-06T10:04:41.657Z,47.56
2023-03-06T10:07:21.489Z,48.33
2023-03-06T10:09:57.274Z,48.28
2023-03-06T10:12:29.151Z,48.00
2023-03-06T10:15:19.424Z,47.79
2023-03-06T10:17:47.325Z,47.65
2023-03-06T10:20:19.213Z,47.18
2023-03-06T10:23:05.468Z,47.00
2023-03-06T10:26:24.321Z,46.69
2023-03-06T10:29:10.830Z,46.52
2023-03-06T10:31:44.662Z,46.22
2023-03-06T10:34:24.119Z,46.16
2023-03-06T10:36:51.820Z,45.56
2023-03-06T10:39:22.761Z,45.69
2023-03-06T10:41:50.338Z,45.11
2023-03-06T10:44:21.181Z,45.33
2023-03-06T10:46:52.017Z,45.27
2023-03-06T10:49:35.970Z,44.51
2023-03-06T10:52:20.612Z,44.62
2023-03-06T10:54:48.585Z,44.31
2023-03-06T10:57:29.408Z,44.66
2023-03-06T11:00:04.525Z,44.49
2023-03-06T11:02:39.423Z,44.59
2023-03-06T11:05:19.649Z,44.70
2023-03-06T11:07:59.719Z,44.62
2023-03-06T11:10:30.466Z,44.65
2023-03-06T11:13:21.248Z,44.79
2023-03-06T11:16:30.498Z,44.02
2023-03-06T11:19:03.911Z,44.34
2023-03-06T11:21:34.957Z,43.93
2023-03-06T11:24:22.869Z,44.12
2023-03-06T11:26:59.693Z,43.64
2023-03-06T11:29:38.873Z,43.87
2023-03-06T11:32:18.463Z,43.84
2023-03-06T11:35:02.739Z,43.26
2023-03-06T11:37:49.458Z,43.24
2023-03-06T11:40:37.240Z,43.89
2023-03-06T11:43:48.075Z,43.67
2023-03-06T11:46:28.806Z,43.49
2023-03-06T11:49:38.328Z,43.85
2023-03-06T11:52:33.683Z,43.60
2023-03-06T11:55:01.318Z,44.02
2023-03-06T11:57:49.093Z,43.95
2023-03-06T12:00:32.839Z,44.00
2023-03-06T12:03:50.004Z,43.62
2023-03-06T12:06:36.593Z,43.13
2023-03-06T12:09:13.182Z,43.04
2023-03-06T12:12:06.402Z,42.76
2023-03-06T12:14:37.412Z,42.86
2023-03-06T12:18:05.638Z,42.98
2023-03-06T12:21:16.176Z,42.72
2023-03-06T12:23:55.629Z,42.60
2023-03-06T12:26:35.702Z,42.55
2023-03-06T12:29:41.434Z,42.20
2023-03-06T12:32:57.545Z,41.77
2023-03-06T12:36:07.620Z,42.21
2023-03-06T12:39:35.758Z,42.15
2023-03-06T12:42:31.233Z,42.30
2023-03-06T12:45:21.822Z,41.74
2023-03-06T12:47:54.281Z,41.67
2023-03-06T12:50:32.519Z,41.89
2023-03-06T12:53:12.538Z,41.95
2023-03-06T12:55:43.768Z,41.45
2023-03-06T12:58:29.866Z,41.07
2023-03-06T13:01:52.089Z,40.53
2023-03-06T13:05:14.774Z,40.45
2023-03-06T13:08:22.686Z,40.74
2023-03-06T13:11:47.483Z,40.38
2023-03-06T13:14:37.538Z,40.63
2023-03-06T13:17:34.381Z,40.05
2023-03-06T13:20:14.118Z,39.52
2023-03-06T13:22:43.606Z,39.73
2023-03-06T13:25:46.792Z,39.55
2023-03-06T13:28:46.035Z,39.89
2023-03-06T13:31:27.584Z,39.58
2023-03-06T13:34:02.260Z,39.78
2023-03-06T13:36:37.597Z,39.56
2023-03-06T13:39:11.372Z,39.93
2023-03-06T13:41:55.098Z,39.87
2023-03-06T13:44:25.609Z,39.83
2023-03-06T13:47:48.843Z,39.71
2023-03-06T13:50:47.735Z,40.06
2023-03-06T13:53:44.871Z,39.69
2023-03-06T13:56:47.519Z,40.25
2023-03-06T14:00:08.300Z,40.04
2023-03-06T14:03:17.883Z,39.87
2023-03-06T14:05:48.920Z,39.85
2023-03-06T14:08:24.002Z,40.19
2023-03-06T14:11:06.661Z,39.82
2023-03-06T14:13:47.427Z,39.78
2023-03-06T14:16:23.456Z,39.95
2023-03-06T14:18:53.765Z,39.63
2023-03-06T14:21:31.654Z,39.80
2023-03-06T14:24:02.267Z,39.31
2023-03-06T14:26:40.105Z,39.15
2023-03-06T14:29:24.654Z,39.11
2023-03-06T14:31:58.728Z,39.01
2023-03-06T14:34:30.083Z,39.09
2023-03-06T14:37:05.501Z,39.17
2023-03-06T14:39:44.810Z,39.39
2023-03-06T14:42:19.517Z,39.12
2023-03-06T14:44:49.170Z,39.26
2023-03-06T14:47:32.390Z,39.28
2023-03-06T14:50:49.031Z,39.02
2023-03-06T14:53:23.088Z,38.65
2023-03-06T14:55:58.923Z,39.00
2023-03-06T14:58:51.401Z,39.13
2023-03-06T15:01:31.440Z,38.99
2023-03-06T15:04:01.290Z,39.43
2023-03-06T15:06:42.529Z,39.53
2023-03-06T15:09:26.645Z,39.56
2023-03-06T15:12:20.289Z,39.56
2023-03-06T15:14:58.017Z,39.62
2023-03-06T15:17:30.387Z,39.40
2023-03-06T15:20:01.829Z,39.82
2023-03-06T15:22:50.013Z,40.17
2023-03-06T15:25:22.272Z,40.15
2023-03-06T15:27:51.601Z,40.85
2023-03-06T15:30:33.282Z,41.34
2023-03-06T15:33:25.042Z,41.98
2023-03-06T15:36:01.942Z,41.78
2023-03-06T15:38:44.614Z,42.51
2023-03-06T15:41:37.288Z,42.83
2023-03-06T15:44:13.908Z,42.65
2023-03-06T15:46:42.140Z,42.65
2023-03-06T15:49:16.821Z,43.24
2023-03-06T15:51:44.541Z,43.57
2023-03-06T15:54:12.988Z,42.86
2023-03-06T15:56:44.212Z,43.22
2023-03-06T15:59:22.125Z,43.09
2023-03-06T16:01:50.740Z,43.47
2023-03-06T16:04:19.830Z,43.53
2023-03-06T16:06:47.416Z,43.22
2023-03-06T16:09:14.983Z,43.02
2023-03-06T16:11:44.759Z,42.84
2023-03-06T16:14:23.924Z,43.01
2023-03-06T16:16:56.589Z,43.30
2023-03-06T16:19:27.418Z,43.94
2023-03-06T16:21:56.697Z,42.85
2023-03-06T16:24:26.065Z,43.18
2023-03-06T16:26:55.033Z,42.82
2023-03-06T16:29:26.360Z,43.04
2023-03-06T16:31:56.865Z,42.86
2023-03-06T16:34:25.060Z,43.17
2023-03-06T16:36:52.748Z,42.65
2023-03-06T16:39:23.751Z,43.33
2023-03-06T16:41:52.424Z,42.72
2023-03-06T16:44:20.909Z,43.09
2023-03-06T16:46:50.234Z,42.78
2023-03-06T16:49:22.029Z,42.95
2023-03-06T16:51:50.960Z,43.25
2023-03-06T16:54:18.761Z,43.01
2023-03-06T16:56:46.465Z,43.41
2023-03-06T16:59:13.984Z,43.08
2023-03-06T17:01:45.380Z,43.00
2023-03-06T17:04:12.909Z,42.88
2023-03-06T17:06:41.781Z,43.08
2023-03-06T17:09:14.259Z,43.33
2023-03-06T17:11:44.761Z,43.38
2023-03-06T17:14:12.593Z,42.89
2023-03-06T17:16:40.642Z,43.38
2023-03-06T17:19:11.431Z,43.72
2023-03-06T17:21:39.238Z,43.60
2023-03-06T17:24:07.462Z,43.52
2023-03-06T17:26:36.958Z,43.56
2023-03-06T17:29:06.936Z,44.08
2023-03-06T17:31:34.660Z,43.66
2023-03-06T17:34:02.224Z,43.92
2023-03-06T17:36:31.433Z,43.54
2023-03-06T17:39:01.893Z,43.57
2023-03-06T17:41:29.860Z,44.16
2023-03-06T17:43:58.657Z,43.60
2023-03-06T17:46:26.347Z,43.79
2023-03-06T17:48:55.403Z,43.86
2023-03-06T17:51:23.240Z,44.30
2023-03-06T17:53:52.152Z,43.94
2023-03-06T17:56:19.958Z,43.41
2023-03-06T17:58:47.676Z,43.50
2023-03-06T18:01:19.235Z,43.62
2023-03-06T18:03:49.908Z,43.34
2023-03-06T18:06:18.629Z,43.50
2023-03-06T18:08:46.612Z,43.42
2023-03-06T18:11:15.495Z,43.69
2023-03-06T18:13:46.342Z,43.88
2023-03-06T18:16:17.552Z,43.57
2023-03-06T18:18:45.979Z,43.45
2023-03-06T18:21:16.099Z,43.54
2023-03-06T18:23:43.769Z,43.53
2023-03-06T18:26:16.765Z,43.43
2023-03-06T18:28:48.329Z,43.99
2023-03-06T18:31:28.066Z,44.21
2023-03-06T18:33:58.759Z,43.82
2023-03-06T18:36:29.779Z,43.85
2023-03-06T18:38:58.646Z,44.04
2023-03-06T18:41:27.290Z,44.16
2023-03-06T18:43:57.312Z,44.08
2023-03-06T18:46:28.882Z,43.94
2023-03-06T18:48:56.417Z,44.20
2023-03-06T18:51:24.099Z,43.71
2023-03-06T18:53:51.689Z,44.13
2023-03-06T18:56:22.021Z,44.59
2023-03-06T18:58:50.396Z,44.32
2023-03-06T19:01:18.509Z,43.90
2023-03-06T19:03:46.486Z,43.95
2023-03-06T19:06:16.913Z,44.61
2023-03-06T19:08:44.819Z,44.13
2023-03-06T19:11:15.613Z,44.42
2023-03-06T19:13:43.953Z,44.58
2023-03-06T19:16:21.661Z,44.29
2023-03-06T19:18:49.222Z,44.35
2023-03-06T19:21:20.594Z,44.17
2023-03-06T19:23:48.739Z,43.95
2023-03-06T19:26:18.636Z,44.46
2023-03-06T19:28:47.890Z,44.00
2023-03-06T19:31:27.480Z,43.95
2023-03-06T19:33:57.091Z,43.86
2023-03-06T19:36:28.709Z,44.10
2023-03-06T19:38:58.389Z,43.76
2023-03-06T19:41:27.189Z,44.20
2023-03-06T19:44:02.295Z,44.14
2023-03-06T19:46:29.967Z,43.86
2023-03-06T19:49:00.279Z,43.67
2023-03-06T19:51:28.557Z,44.20
2023-03-06T19:53:57.502Z,44.05
2023-03-06T19:56:28.696Z,43.95
2023-03-06T19:58:56.653Z,44.00
2023-03-06T20:01:27.087Z,43.33
2023-03-06T20:03:58.656Z,43.16
2023-03-06T20:06:31.017Z,43.49
2023-03-06T20:08:58.866Z,43.84
2023-03-06T20:11:31.472Z,43.77
2023-03-06T20:14:01.931Z,43.25
2023-03-06T20:16:31.188Z,43.47
2023-03-06T20:19:01.069Z,43.39
2023-03-06T20:21:32.424Z,43.92
2023-03-06T20:24:00.078Z,43.48
2023-03-06T20:26:29.023Z,43.38
2023-03-06T20:28:57.702Z,43.62
2023-03-06T20:31:29.341Z,43.17
2023-03-06T20:33:58.876Z,43.69
2023-03-06T20:36:30.160Z,43.69
2023-03-06T20:39:01.334Z,43.59
2023-03-06T20:41:30.544Z,43.58
2023-03-06T20:43:59.620Z,43.61
2023-03-06T20:46:27.200Z,43.61
2023-03-06T20:48:55.888Z,43.84
2023-03-06T20:51:28.489Z,43.37
2023-03-06T20:53:56.727Z,43.19
2023-03-06T20:56:30.994Z,43.52
2023-03-06T20:58:59.342Z,43.02
2023-03-06T21:01:33.834Z,43.20
2023-03-06T21:04:04.446Z,43.30
2023-03-06T21:06:32.714Z,43.02
2023-03-06T21:09:01.719Z,42.70
2023-03-06T21:11:29.352Z,43.03
2023-03-06T21:13:57.127Z,42.71
2023-03-06T21:16:27.060Z,43.49
2023-03-06T21:18:56.072Z,43.20
2023-03-06T21:21:28.154Z,43.47
2023-03-06T21:23:55.926Z,43.08
2023-03-06T21:26:26.714Z,42.89
2023-03-06T21:28:56.478Z,42.59
2023-03-06T21:31:24.239Z,42.82
2023-03-06T21:33:52.450Z,43.36
2023-03-06T21:36:23.996Z,42.90
2023-03-06T21:38:52.479Z,43.23
2023-03-06T21:41:27.153Z,43.28
2023-03-06T21:44:00.420Z,42.67
2023-03-06T21:46:28.562Z,43.09
2023-03-06T21:48:57.830Z,42.84
2023-03-06T21:51:26.618Z,42.95
2023-03-06T21:53:55.351Z,42.73
2023-03-06T21:56:25.655Z,42.78
2023-03-06T21:58:53.678Z,42.60
2023-03-06T22:01:25.719Z,42.41
2023-03-06T22:03:53.434Z,42.92
2023-03-06T22:06:25.308Z,43.04
2023-03-06T22:08:55.044Z,42.72
2023-03-06T22:11:24.354Z,43.03
2023-03-06T22:13:55.648Z,43.14
2023-03-06T22:16:23.857Z,43.25
2023-03-06T22:18:52.014Z,42.99
2023-03-06T22:21:22.110Z,42.50
2023-03-06T22:23:57.176Z,42.99
2023-03-06T22:26:26.667Z,42.38
2023-03-06T22:28:54.572Z,42.95
2023-03-06T22:31:26.084Z,43.28
2023-03-06T22:33:55.700Z,43.21
2023-03-06T22:36:24.034Z,42.67
2023-03-06T22:38:57.378Z,42.54
2023-03-06T22:41:26.721Z,42.44
2023-03-06T22:43:59.666Z,42.82
2023-03-06T22:46:28.073Z,43.52
2023-03-06T22:48:57.080Z,43.29
2023-03-06T22:51:25.906Z,43.27
2023-03-06T22:53:54.066Z,42.60
2023-03-06T22:56:22.335Z,42.73
2023-03-06T22:58:49.931Z,43.43
2023-03-06T23:01:21.442Z,42.67
2023-03-06T23:03:52.047Z,43.13
2023-03-06T23:06:27.321Z,43.01
2023-03-06T23:09:00.323Z,42.77
2023-03-06T23:11:29.730Z,42.81
2023-03-06T23:14:17.356Z,42.81
2023-03-06T23:17:03.738Z,42.51
2023-03-06T23:19:50.269Z,42.73
2023-03-06T23:22:36.574Z,42.86
2023-03-06T23:25:22.892Z,42.81
2023-03-06T23:27:50.412Z,42.70
2023-03-06T23:30:18.177Z,43.53
2023-03-06T23:32:46.135Z,43.22
2023-03-06T23:35:14.400Z,43.11
2023-03-06T23:37:42.614Z,42.83
2023-03-06T23:40:11.624Z,42.84
2023-03-06T23:42:39.164Z,42.84
2023-03-06T23:45:07.565Z,43.34
2023-03-06T23:47:35.081Z,42.78
2023-03-06T23:50:02.659Z,43.07
2023-03-06T23:52:30.158Z,43.29
2023-03-06T23:54:57.772Z,43.94
2023-03-06T23:57:25.241Z,43.25
2023-03-06T23:59:53.317Z,43.32
